sensor_id;sensor_type;location;lat;lon;timestamp;pressure;altitude;pressure_sealevel;temperature;humidity
9899;BME280;4988;49.238;6.698;2023-03-14T00:00:20;97286.53;;;9.97;100.00
9899;BME280;4988;49.238;6.698;2023-03-14T00:02:45;97294.41;;;9.98;100.00
9899;BME280;4988;49.238;6.698;2023-03-14T00:05:11;97286.22;;;10.02;100.00
9899;BME280;4988;49.238;6.698;2023-03-14T00:07:38;97278.44;;;9.98;100.00
9899;BME280;4988;49.238;6.698;2023-03-14T00:10:06;97272.91;;;10.02;100.00
9899;BME280;4988;49.238;6.698;2023-03-14T00:12:32;97275.34;;;10.05;100.00
9899;BME280;4988;49.238;6.698;2023-03-14T00:14:58;97275.34;;;10.05;100.00
9899;BME280;4988;49.238;6.698;2023-03-14T00:17:25;97265.44;;;10.07;100.00
9899;BME280;4988;49.238;6.698;2023-03-14T00:19:50;97264.13;;;10.12;100.00
9899;BME280;4988;49.238;6.698;2023-03-14T00:22:19;97266.44;;;10.17;100.00
9899;BME280;4988;49.238;6.698;2023-03-14T00:24:44;97268.59;;;10.12;100.00
9899;BME280;4988;49.238;6.698;2023-03-14T00:27:09;97274.03;;;10.10;100.00
9899;BME280;4988;49.238;6.698;2023-03-14T00:29:35;97280.94;;;10.13;100.00
9899;BME280;4988;49.238;6.698;2023-03-14T00:32:00;97279.59;;;10.19;100.00
9899;BME280;4988;49.238;6.698;2023-03-14T00:34:29;97274.91;;;10.22;100.00
9899;BME280;4988;49.238;6.698;2023-03-14T00:36:54;97277.31;;;10.14;100.00
9899;BME280;4988;49.238;6.698;2023-03-14T00:39:20;97286.88;;;10.17;100.00
9899;BME280;4988;49.238;6.698;2023-03-14T00:41:45;97288.91;;;10.13;100.00
9899;BME280;4988;49.238;6.698;2023-03-14T00:44:10;97288.63;;;10.05;100.00
9899;BME280;4988;49.238;6.698;2023-03-14T00:46:36;97307.22;;;10.05;100.00
9899;BME280;4988;49.238;6.698;2023-03-14T00:49:01;97299.09;;;9.95;100.00
9899;BME280;4988;49.238;6.698;2023-03-14T00:51:26;97301.25;;;9.90;100.00
9899;BME280;4988;49.238;6.698;2023-03-14T00:53:52;97298.28;;;9.81;100.00
9899;BME280;4988;49.238;6.698;2023-03-14T00:56:17;97301.91;;;9.80;100.00
9899;BME280;4988;49.238;6.698;2023-03-14T00:58:43;97295.44;;;9.72;100.00
9899;BME280;4988;49.238;6.698;2023-03-14T01:01:12;97296.44;;;9.71;100.00
9899;BME280;4988;49.238;6.698;2023-03-14T01:03:37;97296.63;;;9.68;100.00
9899;BME280;4988;49.238;6.698;2023-03-14T01:06:11;97300.25;;;9.66;100.00
9899;BME280;4988;49.238;6.698;2023-03-14T01:08:37;97302.19;;;9.64;100.00
9899;BME280;4988;49.238;6.698;2023-03-14T01:11:11;97302.91;;;9.66;100.00
9899;BME280;4988;49.238;6.698;2023-03-14T01:13:37;97301.75;;;9.71;100.00
9899;BME280;4988;49.238;6.698;2023-03-14T01:16:05;97302.97;;;9.78;100.00
9899;BME280;4988;49.238;6.698;2023-03-14T01:18:32;97299.78;;;9.86;100.00
9899;BME280;4988;49.238;6.698;2023-03-14T01:20:57;97297.22;;;9.84;100.00
9899;BME280;4988;49.238;6.698;2023-03-14T01:23:22;97306.88;;;9.85;100.00
9899;BME280;4988;49.238;6.698;2023-03-14T01:25:48;97305.59;;;9.91;100.00
9899;BME280;4988;49.238;6.698;2023-03-14T01:28:13;97303.06;;;9.89;100.00
9899;BME280;4988;49.238;6.698;2023-03-14T01:30:39;97304.19;;;9.98;100.00
9899;BME280;4988;49.238;6.698;2023-03-14T01:33:04;97301.03;;;9.93;100.00
9899;BME280;4988;49.238;6.698;2023-03-14T01:35:29;97293.16;;;9.91;100.00
9899;BME280;4988;49.238;6.698;2023-03-14T01:37:54;97284.22;;;9.92;100.00
9899;BME280;4988;49.238;6.698;2023-03-14T01:40:20;97281.84;;;10.01;100.00
9899;BME280;4988;49.238;6.698;2023-03-14T01:43:05;97278.91;;;9.92;100.00
9899;BME280;4988;49.238;6.698;2023-03-14T01:51:42;97261.88;;;9.95;100.00
9899;BME280;4988;49.238;6.698;2023-03-14T01:54:40;97244.00;;;9.73;100.00
9899;BME280;4988;49.238;6.698;2023-03-14T01:57:14;97247.41;;;9.75;100.00
9899;BME280;4988;49.238;6.698;2023-03-14T01:59:44;97237.00;;;9.72;100.00
9899;BME280;4988;49.238;6.698;2023-03-14T02:02:12;97240.53;;;9.59;100.00
9899;BME280;4988;49.238;6.698;2023-03-14T02:04:38;97226.31;;;9.60;100.00
9899;BME280;4988;49.238;6.698;2023-03-14T02:07:09;97235.06;;;9.49;100.00
9899;BME280;4988;49.238;6.698;2023-03-14T02:09:38;97241.06;;;9.40;100.00
9899;BME280;4988;49.238;6.698;2023-03-14T02:12:04;97234.66;;;9.43;100.00
9899;BME280;4988;49.238;6.698;2023-03-14T02:14:35;97217.47;;;9.36;100.00
9899;BME280;4988;49.238;6.698;2023-03-14T02:17:03;97217.72;;;9.32;100.00
9899;BME280;4988;49.238;6.698;2023-03-14T02:19:44;97209.22;;;9.27;100.00
9899;BME280;4988;49.238;6.698;2023-03-14T02:22:13;97200.53;;;9.25;100.00
9899;BME280;4988;49.238;6.698;2023-03-14T02:25:01;97192.44;;;9.27;100.00
9899;BME280;4988;49.238;6.698;2023-03-14T02:27:29;97199.56;;;9.26;100.00
9899;BME280;4988;49.238;6.698;2023-03-14T02:29:58;97199.13;;;9.32;100.00
9899;BME280;4988;49.238;6.698;2023-03-14T02:32:25;97192.38;;;9.40;100.00
9899;BME280;4988;49.238;6.698;2023-03-14T02:34:55;97196.63;;;9.42;100.00
9899;BME280;4988;49.238;6.698;2023-03-14T02:37:24;97194.94;;;9.41;100.00
9899;BME280;4988;49.238;6.698;2023-03-14T02:39:52;97186.69;;;9.33;100.00
9899;BME280;4988;49.238;6.698;2023-03-14T02:42:18;97189.66;;;9.28;100.00
9899;BME280;4988;49.238;6.698;2023-03-14T02:44:59;97171.66;;;9.21;100.00
9899;BME280;4988;49.238;6.698;2023-03-14T02:47:28;97184.28;;;9.17;100.00
9899;BME280;4988;49.238;6.698;2023-03-14T02:50:00;97183.47;;;9.04;100.00
9899;BME280;4988;49.238;6.698;2023-03-14T02:52:26;97171.28;;;9.01;100.00
9899;BME280;4988;49.238;6.698;2023-03-14T02:54:52;97171.66;;;9.08;100.00
9899;BME280;4988;49.238;6.698;2023-03-14T02:57:17;97168.38;;;9.04;100.00
9899;BME280;4988;49.238;6.698;2023-03-14T02:59:42;97167.69;;;8.89;100.00
9899;BME280;4988;49.238;6.698;2023-03-14T03:02:08;97162.81;;;8.83;100.00
9899;BME280;4988;49.238;6.698;2023-03-14T03:04:33;97162.81;;;8.83;100.00
9899;BME280;4988;49.238;6.698;2023-03-14T03:06:58;97157.94;;;8.77;100.00
9899;BME280;4988;49.238;6.698;2023-03-14T03:09:24;97156.38;;;8.74;100.00
9899;BME280;4988;49.238;6.698;2023-03-14T03:11:49;97148.53;;;8.73;100.00
9899;BME280;4988;49.238;6.698;2023-03-14T03:14:14;97132.38;;;8.76;100.00
9899;BME280;4988;49.238;6.698;2023-03-14T03:16:39;97127.31;;;8.73;100.00
9899;BME280;4988;49.238;6.698;2023-03-14T03:19:05;97129.22;;;8.71;100.00
9899;BME280;4988;49.238;6.698;2023-03-14T03:21:30;97116.56;;;8.74;100.00
9899;BME280;4988;49.238;6.698;2023-03-14T03:23:56;97127.41;;;8.71;100.00
9899;BME280;4988;49.238;6.698;2023-03-14T03:26:21;97130.16;;;8.69;100.00
9899;BME280;4988;49.238;6.698;2023-03-14T03:28:46;97127.94;;;8.76;100.00
9899;BME280;4988;49.238;6.698;2023-03-14T03:31:12;97120.41;;;8.70;100.00
9899;BME280;4988;49.238;6.698;2023-03-14T03:33:37;97128.50;;;8.68;100.00
9899;BME280;4988;49.238;6.698;2023-03-14T03:36:03;97118.72;;;8.69;100.00
9899;BME280;4988;49.238;6.698;2023-03-14T03:38:28;97121.47;;;8.67;100.00
9899;BME280;4988;49.238;6.698;2023-03-14T03:40:53;97126.16;;;8.64;100.00
9899;BME280;4988;49.238;6.698;2023-03-14T03:43:19;97112.56;;;8.68;100.00
9899;BME280;4988;49.238;6.698;2023-03-14T03:45:44;97118.72;;;8.69;100.00
9899;BME280;4988;49.238;6.698;2023-03-14T03:48:09;97110.00;;;8.67;100.00
9899;BME280;4988;49.238;6.698;2023-03-14T03:50:35;97115.94;;;8.71;100.00
9899;BME280;4988;49.238;6.698;2023-03-14T03:53:00;97112.56;;;8.68;100.00
9899;BME280;4988;49.238;6.698;2023-03-14T03:55:25;97110.44;;;8.74;100.00
9899;BME280;4988;49.238;6.698;2023-03-14T03:57:53;97111.59;;;8.69;100.00
9899;BME280;4988;49.238;6.698;2023-03-14T04:00:18;97109.38;;;8.76;100.00
9899;BME280;4988;49.238;6.698;2023-03-14T04:02:43;97112.75;;;8.78;100.00
9899;BME280;4988;49.238;6.698;2023-03-14T04:05:09;97111.38;;;8.73;100.00
9899;BME280;4988;49.238;6.698;2023-03-14T04:07:34;97114.78;;;8.75;100.00
9899;BME280;4988;49.238;6.698;2023-03-14T04:10:00;97114.03;;;8.73;100.00
9899;BME280;4988;49.238;6.698;2023-03-14T04:12:25;97108.41;;;8.64;100.00
9899;BME280;4988;49.238;6.698;2023-03-14T04:14:51;97106.41;;;8.68;100.00
9899;BME280;4988;49.238;6.698;2023-03-14T04:17:16;97105.78;;;8.64;100.00
9899;BME280;4988;49.238;6.698;2023-03-14T04:19:41;97107.72;;;8.62;100.00
9899;BME280;4988;49.238;6.698;2023-03-14T04:22:07;97105.06;;;8.62;100.00
9899;BME280;4988;49.238;6.698;2023-03-14T04:24:33;97108.41;;;8.64;100.00
9899;BME280;4988;49.238;6.698;2023-03-14T04:26:58;97096.66;;;8.68;100.00
9899;BME280;4988;49.238;6.698;2023-03-14T04:29:23;97097.09;;;8.62;100.00
9899;BME280;4988;49.238;6.698;2023-03-14T04:31:49;97099.94;;;8.59;100.00
9899;BME280;4988;49.238;6.698;2023-03-14T04:34:14;97092.84;;;8.60;100.00
9899;BME280;4988;49.238;6.698;2023-03-14T04:36:39;97090.19;;;8.60;100.00
9899;BME280;4988;49.238;6.698;2023-03-14T04:39:05;97089.34;;;8.59;100.00
9899;BME280;4988;49.238;6.698;2023-03-14T04:41:30;97085.94;;;8.57;100.00
9899;BME280;4988;49.238;6.698;2023-03-14T04:43:55;97078.63;;;8.61;100.00
9899;BME280;4988;49.238;6.698;2023-03-14T04:46:21;97079.25;;;8.64;100.00
9899;BME280;4988;49.238;6.698;2023-03-14T04:48:46;97077.03;;;8.71;100.00
9899;BME280;4988;49.238;6.698;2023-03-14T04:51:11;97087.94;;;8.66;100.00
9899;BME280;4988;49.238;6.698;2023-03-14T04:53:37;97071.63;;;8.60;100.00
9899;BME280;4988;49.238;6.698;2023-03-14T04:56:03;97063.66;;;8.60;100.00
9899;BME280;4988;49.238;6.698;2023-03-14T04:58:28;97065.72;;;8.56;100.00
9899;BME280;4988;49.238;6.698;2023-03-14T05:00:53;97063.16;;;8.55;100.00
9899;BME280;4988;49.238;6.698;2023-03-14T05:03:19;97055.31;;;8.53;100.00
9899;BME280;4988;49.238;6.698;2023-03-14T05:05:44;97052.34;;;8.58;100.00
9899;BME280;4988;49.238;6.698;2023-03-14T05:08:10;97059.53;;;8.56;100.00
9899;BME280;4988;49.238;6.698;2023-03-14T05:10:36;97055.31;;;8.53;100.00
9899;BME280;4988;49.238;6.698;2023-03-14T05:13:02;97054.56;;;8.51;100.00
9899;BME280;4988;49.238;6.698;2023-03-14T05:15:28;97043.25;;;8.49;100.00
9899;BME280;4988;49.238;6.698;2023-03-14T05:17:53;97039.84;;;8.47;100.00
9899;BME280;4988;49.238;6.698;2023-03-14T05:20:20;97038.66;;;8.51;100.00
9899;BME280;4988;49.238;6.698;2023-03-14T05:22:45;97031.44;;;8.53;100.00
9899;BME280;4988;49.238;6.698;2023-03-14T05:25:10;97025.75;;;8.46;100.00
9899;BME280;4988;49.238;6.698;2023-03-14T05:27:36;97035.47;;;8.46;100.00
9899;BME280;4988;49.238;6.698;2023-03-14T05:30:03;97037.38;;;8.44;100.00
9899;BME280;4988;49.238;6.698;2023-03-14T05:32:28;97033.72;;;8.46;100.00
9899;BME280;4988;49.238;6.698;2023-03-14T05:34:54;97016.72;;;8.49;100.00
9899;BME280;4988;49.238;6.698;2023-03-14T05:37:23;97020.34;;;8.48;100.00
9899;BME280;4988;49.238;6.698;2023-03-14T05:39:49;97024.09;;;8.44;100.00
9899;BME280;4988;49.238;6.698;2023-03-14T05:42:15;97024.09;;;8.44;100.00
9899;BME280;4988;49.238;6.698;2023-03-14T05:44:40;97015.44;;;8.42;100.00
9899;BME280;4988;49.238;6.698;2023-03-14T05:47:05;97012.56;;;8.45;100.00
9899;BME280;4988;49.238;6.698;2023-03-14T05:49:31;97009.06;;;8.44;100.00
9899;BME280;4988;49.238;6.698;2023-03-14T05:51:56;97018.63;;;8.47;100.00
9899;BME280;4988;49.238;6.698;2023-03-14T05:54:21;97001.53;;;8.51;100.00
9899;BME280;4988;49.238;6.698;2023-03-14T05:56:47;97011.31;;;8.50;100.00
9899;BME280;4988;49.238;6.698;2023-03-14T05:59:12;97004.41;;;8.48;100.00
9899;BME280;4988;49.238;6.698;2023-03-14T06:01:39;97006.97;;;8.49;100.00
9899;BME280;4988;49.238;6.698;2023-03-14T06:04:04;97013.13;;;8.50;100.00
9899;BME280;4988;49.238;6.698;2023-03-14T06:06:29;97013.00;;;8.51;100.00
9899;BME280;4988;49.238;6.698;2023-03-14T06:08:55;97017.56;;;8.49;100.00
9899;BME280;4988;49.238;6.698;2023-03-14T06:11:20;97020.09;;;8.51;100.00
9899;BME280;4988;49.238;6.698;2023-03-14T06:13:45;97019.25;;;8.50;100.00
9899;BME280;4988;49.238;6.698;2023-03-14T06:16:11;97017.22;;;8.54;100.00
9899;BME280;4988;49.238;6.698;2023-03-14T06:18:36;97020.06;;;8.64;100.00
9899;BME280;4988;49.238;6.698;2023-03-14T06:21:02;97013.28;;;8.60;100.00
9899;BME280;4988;49.238;6.698;2023-03-14T06:23:27;97014.13;;;8.60;100.00
9899;BME280;4988;49.238;6.698;2023-03-14T06:25:55;97005.22;;;8.61;100.00
9899;BME280;4988;49.238;6.698;2023-03-14T06:28:20;97018.25;;;8.64;100.00
9899;BME280;4988;49.238;6.698;2023-03-14T06:30:46;97007.75;;;8.63;100.00
9899;BME280;4988;49.238;6.698;2023-03-14T06:33:11;97013.69;;;8.66;100.00
9899;BME280;4988;49.238;6.698;2023-03-14T06:35:36;97021.69;;;8.78;100.00
9899;BME280;4988;49.238;6.698;2023-03-14T06:38:02;97016.63;;;8.75;100.00
9899;BME280;4988;49.238;6.698;2023-03-14T06:40:27;97007.59;;;8.77;100.00
9899;BME280;4988;49.238;6.698;2023-03-14T06:42:53;97019.06;;;8.78;100.00
9899;BME280;4988;49.238;6.698;2023-03-14T06:45:18;97020.41;;;8.83;100.00
9899;BME280;4988;49.238;6.698;2023-03-14T06:47:43;97023.16;;;8.82;100.00
9899;BME280;4988;49.238;6.698;2023-03-14T06:50:10;97015.50;;;8.90;100.00
9899;BME280;4988;49.238;6.698;2023-03-14T06:52:36;97021.66;;;8.91;100.00
9899;BME280;4988;49.238;6.698;2023-03-14T06:55:01;97021.53;;;8.92;100.00
9899;BME280;4988;49.238;6.698;2023-03-14T06:57:26;97027.34;;;8.97;100.00
9899;BME280;4988;49.238;6.698;2023-03-14T06:59:52;97009.97;;;8.93;100.00
9899;BME280;4988;49.238;6.698;2023-03-14T07:02:17;97025.53;;;8.98;100.00
9899;BME280;4988;49.238;6.698;2023-03-14T07:04:43;97029.06;;;8.98;100.00
9899;BME280;4988;49.238;6.698;2023-03-14T07:07:08;97038.59;;;9.01;100.00
9899;BME280;4988;49.238;6.698;2023-03-14T07:09:34;97029.66;;;9.02;100.00
9899;BME280;4988;49.238;6.698;2023-03-14T07:12:00;97040.16;;;9.04;100.00
9899;BME280;4988;49.238;6.698;2023-03-14T07:14:26;97033.91;;;9.05;100.00
9899;BME280;4988;49.238;6.698;2023-03-14T07:16:51;97031.53;;;9.13;100.00
9899;BME280;4988;49.238;6.698;2023-03-14T07:19:16;97046.03;;;9.20;100.00
9899;BME280;4988;49.238;6.698;2023-03-14T07:21:42;97034.44;;;9.21;100.00
9899;BME280;4988;49.238;6.698;2023-03-14T07:24:07;97041.44;;;9.22;100.00
9899;BME280;4988;49.238;6.698;2023-03-14T07:26:33;97038.91;;;9.21;100.00
9899;BME280;4988;49.238;6.698;2023-03-14T07:28:58;97034.34;;;9.23;100.00
9899;BME280;4988;49.238;6.698;2023-03-14T07:31:23;97030.84;;;9.22;100.00
9899;BME280;4988;49.238;6.698;2023-03-14T07:33:49;97039.28;;;9.27;100.00
9899;BME280;4988;49.238;6.698;2023-03-14T07:36:14;97029.69;;;9.38;100.00
9899;BME280;4988;49.238;6.698;2023-03-14T07:38:40;97031.75;;;9.45;100.00
9899;BME280;4988;49.238;6.698;2023-03-14T07:41:06;97033.47;;;9.46;100.00
9899;BME280;4988;49.238;6.698;2023-03-14T07:43:31;97017.19;;;9.51;100.00
9899;BME280;4988;49.238;6.698;2023-03-14T07:45:57;97045.66;;;9.49;100.00
9899;BME280;4988;49.238;6.698;2023-03-14T07:48:23;97026.09;;;9.50;100.00
9899;BME280;4988;49.238;6.698;2023-03-14T07:50:51;97034.91;;;9.50;100.00
9899;BME280;4988;49.238;6.698;2023-03-14T07:53:17;97028.50;;;9.53;100.00
9899;BME280;4988;49.238;6.698;2023-03-14T07:55:42;97034.31;;;9.58;100.00
9899;BME280;4988;49.238;6.698;2023-03-14T07:58:07;97026.88;;;9.63;100.00
9899;BME280;4988;49.238;6.698;2023-03-14T08:00:33;97034.59;;;9.66;100.00
9899;BME280;4988;49.238;6.698;2023-03-14T08:02:58;97031.81;;;9.68;100.00
9899;BME280;4988;49.238;6.698;2023-03-14T08:05:24;97033.75;;;9.66;100.00
9899;BME280;4988;49.238;6.698;2023-03-14T08:07:49;97044.59;;;9.63;100.00
9899;BME280;4988;49.238;6.698;2023-03-14T08:10:15;97032.06;;;9.65;100.00
9899;BME280;4988;49.238;6.698;2023-03-14T08:12:51;97034.38;;;9.70;100.00
9899;BME280;4988;49.238;6.698;2023-03-14T08:15:16;97026.13;;;9.61;100.00
9899;BME280;4988;49.238;6.698;2023-03-14T08:17:42;97031.91;;;9.55;100.00
9899;BME280;4988;49.238;6.698;2023-03-14T08:20:08;97038.06;;;9.56;100.00
9899;BME280;4988;49.238;6.698;2023-03-14T08:22:36;97037.97;;;9.57;100.00
9899;BME280;4988;49.238;6.698;2023-03-14T08:25:01;97042.75;;;9.52;100.00
9899;BME280;4988;49.238;6.698;2023-03-14T08:27:27;97040.97;;;9.53;100.00
9899;BME280;4988;49.238;6.698;2023-03-14T08:29:52;97041.31;;;9.48;100.00
9899;BME280;4988;49.238;6.698;2023-03-14T08:32:17;97042.72;;;9.41;100.00
9899;BME280;4988;49.238;6.698;2023-03-14T08:34:45;97043.69;;;9.40;100.00
9899;BME280;4988;49.238;6.698;2023-03-14T08:37:10;97054.56;;;9.37;100.00
9899;BME280;4988;49.238;6.698;2023-03-14T08:39:35;97053.09;;;9.32;100.00
9899;BME280;4988;49.238;6.698;2023-03-14T08:42:01;97054.75;;;9.33;100.00
9899;BME280;4988;49.238;6.698;2023-03-14T08:44:26;97053.09;;;9.32;100.00
9899;BME280;4988;49.238;6.698;2023-03-14T08:46:51;97058.63;;;9.29;100.00
9899;BME280;4988;49.238;6.698;2023-03-14T08:49:16;97048.47;;;9.23;100.00
9899;BME280;4988;49.238;6.698;2023-03-14T08:51:42;97047.63;;;9.23;100.00
9899;BME280;4988;49.238;6.698;2023-03-14T08:54:10;97050.38;;;9.21;100.00
9899;BME280;4988;49.238;6.698;2023-03-14T08:56:35;97048.91;;;9.17;100.00
9899;BME280;4988;49.238;6.698;2023-03-14T08:59:03;97053.03;;;9.21;100.00
9899;BME280;4988;49.238;6.698;2023-03-14T09:01:28;97050.00;;;9.14;100.00
9899;BME280;4988;49.238;6.698;2023-03-14T09:03:53;97057.72;;;9.17;100.00
9899;BME280;4988;49.238;6.698;2023-03-14T09:06:19;97069.19;;;9.18;100.00
9899;BME280;4988;49.238;6.698;2023-03-14T09:08:45;97066.66;;;9.16;100.00
9899;BME280;4988;49.238;6.698;2023-03-14T09:11:11;97081.41;;;9.21;100.00
9899;BME280;4988;49.238;6.698;2023-03-14T09:13:37;97078.13;;;9.17;100.00
9899;BME280;4988;49.238;6.698;2023-03-14T09:16:02;97086.91;;;9.17;100.00
9899;BME280;4988;49.238;6.698;2023-03-14T09:18:27;97082.69;;;9.15;100.00
9899;BME280;4988;49.238;6.698;2023-03-14T09:20:55;97098.59;;;9.15;100.00
9899;BME280;4988;49.238;6.698;2023-03-14T09:23:20;97111.16;;;9.13;100.00
9899;BME280;4988;49.238;6.698;2023-03-14T09:25:46;97105.63;;;9.16;100.00
9899;BME280;4988;49.238;6.698;2023-03-14T09:28:11;97122.84;;;9.10;100.00
9899;BME280;4988;49.238;6.698;2023-03-14T09:30:37;97133.28;;;9.00;100.00
9899;BME280;4988;49.238;6.698;2023-03-14T09:33:02;97134.56;;;8.95;100.00
9899;BME280;4988;49.238;6.698;2023-03-14T09:35:28;97158.88;;;8.89;100.00
9899;BME280;4988;49.238;6.698;2023-03-14T09:37:53;97170.50;;;8.75;100.00
9899;BME280;4988;49.238;6.698;2023-03-14T09:40:19;97175.38;;;8.68;100.00
9899;BME280;4988;49.238;6.698;2023-03-14T09:42:47;97201.66;;;8.45;100.00
9899;BME280;4988;49.238;6.698;2023-03-14T09:45:23;97206.72;;;8.23;100.00
9899;BME280;4988;49.238;6.698;2023-03-14T09:47:50;97198.00;;;8.08;100.00
9899;BME280;4988;49.238;6.698;2023-03-14T09:50:16;97229.47;;;7.99;100.00
9899;BME280;4988;49.238;6.698;2023-03-14T09:52:45;97221.09;;;7.93;100.00
9899;BME280;4988;49.238;6.698;2023-03-14T09:55:16;97253.53;;;7.96;100.00
9899;BME280;4988;49.238;6.698;2023-03-14T09:57:43;97262.81;;;7.89;100.00
9899;BME280;4988;49.238;6.698;2023-03-14T10:00:20;97271.38;;;7.80;100.00
9899;BME280;4988;49.238;6.698;2023-03-14T10:02:53;97290.66;;;7.82;100.00
9899;BME280;4988;49.238;6.698;2023-03-14T10:05:21;97306.19;;;7.73;100.00
9899;BME280;4988;49.238;6.698;2023-03-14T10:07:47;97315.91;;;7.60;100.00
9899;BME280;4988;49.238;6.698;2023-03-14T10:12:41;97327.81;;;7.38;100.00
9899;BME280;4988;49.238;6.698;2023-03-14T10:15:11;97317.81;;;7.29;100.00
9899;BME280;4988;49.238;6.698;2023-03-14T10:17:47;97340.88;;;7.27;100.00
9899;BME280;4988;49.238;6.698;2023-03-14T10:20:37;97361.97;;;7.29;100.00
9899;BME280;4988;49.238;6.698;2023-03-14T10:23:22;97365.44;;;7.29;100.00
9899;BME280;4988;49.238;6.698;2023-03-14T10:28:45;97403.06;;;7.20;100.00
9899;BME280;4988;49.238;6.698;2023-03-14T10:31:11;97405.72;;;7.20;100.00
9899;BME280;4988;49.238;6.698;2023-03-14T10:33:38;97416.03;;;7.24;100.00
9899;BME280;4988;49.238;6.698;2023-03-14T10:38:36;97447.41;;;7.45;96.54
9899;BME280;4988;49.238;6.698;2023-03-14T10:41:05;97446.97;;;7.53;96.06
9899;BME280;4988;49.238;6.698;2023-03-14T10:43:40;97450.63;;;7.65;97.78
9899;BME280;4988;49.238;6.698;2023-03-14T10:46:11;97460.94;;;7.84;94.29
9899;BME280;4988;49.238;6.698;2023-03-14T10:48:38;97465.47;;;8.11;93.28
9899;BME280;4988;49.238;6.698;2023-03-14T10:51:11;97468.72;;;8.29;86.76
9899;BME280;4988;49.238;6.698;2023-03-14T10:56:15;97487.13;;;8.32;79.14
9899;BME280;4988;49.238;6.698;2023-03-14T10:58:45;97485.00;;;8.37;78.81
9899;BME280;4988;49.238;6.698;2023-03-14T11:04:01;97523.00;;;8.23;79.40
9899;BME280;4988;49.238;6.698;2023-03-14T11:06:44;97546.66;;;8.26;81.39
9899;BME280;4988;49.238;6.698;2023-03-14T11:09:29;97564.88;;;8.18;77.11
9899;BME280;4988;49.238;6.698;2023-03-14T11:12:49;97558.22;;;8.11;75.60
9899;BME280;4988;49.238;6.698;2023-03-14T11:14:55;97570.25;;;8.02;69.26
9899;BME280;4988;49.238;6.698;2023-03-14T11:17:30;97577.53;;;8.13;71.86
9899;BME280;4988;49.238;6.698;2023-03-14T11:22:47;97596.44;;;8.07;67.21
9899;BME280;4988;49.238;6.698;2023-03-14T11:27:59;97630.16;;;8.19;64.49
9899;BME280;4988;49.238;6.698;2023-03-14T11:30:43;97627.06;;;8.27;63.40
9899;BME280;4988;49.238;6.698;2023-03-14T11:33:16;97624.69;;;8.36;65.01
9899;BME280;4988;49.238;6.698;2023-03-14T11:36:09;97644.19;;;8.21;64.35
9899;BME280;4988;49.238;6.698;2023-03-14T11:38:40;97660.53;;;8.28;65.96
9899;BME280;4988;49.238;6.698;2023-03-14T11:41:19;97657.63;;;8.32;63.72
9899;BME280;4988;49.238;6.698;2023-03-14T11:43:51;97643.25;;;8.51;66.33
9899;BME280;4988;49.238;6.698;2023-03-14T11:46:25;97674.88;;;8.40;62.10
9899;BME280;4988;49.238;6.698;2023-03-14T11:51:36;97690.41;;;8.46;61.23
9899;BME280;4988;49.238;6.698;2023-03-14T11:57:01;97720.00;;;8.54;61.58
9899;BME280;4988;49.238;6.698;2023-03-14T11:59:33;97726.19;;;8.38;59.85
9899;BME280;4988;49.238;6.698;2023-03-14T12:02:09;97732.69;;;8.18;58.91
9899;BME280;4988;49.238;6.698;2023-03-14T12:07:34;97748.28;;;8.09;60.42
9899;BME280;4988;49.238;6.698;2023-03-14T12:10:04;97741.09;;;8.11;58.97
9899;BME280;4988;49.238;6.698;2023-03-14T12:12:30;97737.06;;;8.19;59.00
9899;BME280;4988;49.238;6.698;2023-03-14T12:14:58;97752.91;;;8.35;59.44
9899;BME280;4988;49.238;6.698;2023-03-14T12:17:35;97755.19;;;8.42;58.42
9899;BME280;4988;49.238;6.698;2023-03-14T12:22:35;97761.22;;;8.44;59.45
9899;BME280;4988;49.238;6.698;2023-03-14T12:25:05;97778.34;;;8.54;59.32
9899;BME280;4988;49.238;6.698;2023-03-14T12:27:47;97775.50;;;8.57;59.45
9899;BME280;4988;49.238;6.698;2023-03-14T12:33:12;97778.69;;;8.78;58.47
9899;BME280;4988;49.238;6.698;2023-03-14T12:35:46;97781.97;;;8.82;56.42
9899;BME280;4988;49.238;6.698;2023-03-14T12:38:31;97785.22;;;8.87;58.09
9899;BME280;4988;49.238;6.698;2023-03-14T12:41:13;97767.59;;;8.86;56.94
9899;BME280;4988;49.238;6.698;2023-03-14T12:43:39;97773.25;;;9.09;55.47
9899;BME280;4988;49.238;6.698;2023-03-14T12:49:07;97794.88;;;9.31;55.98
9899;BME280;4988;49.238;6.698;2023-03-14T12:51:38;97801.91;;;9.04;55.96
9899;BME280;4988;49.238;6.698;2023-03-14T12:56:59;97811.84;;;9.00;58.66
9899;BME280;4988;49.238;6.698;2023-03-14T12:59:34;97817.69;;;8.76;57.35
9899;BME280;4988;49.238;6.698;2023-03-14T13:02:10;97811.53;;;8.76;58.03
9899;BME280;4988;49.238;6.698;2023-03-14T13:04:53;97824.94;;;8.58;58.90
9899;BME280;4988;49.238;6.698;2023-03-14T13:08:02;97841.22;;;8.52;59.54
9899;BME280;4988;49.238;6.698;2023-03-14T13:10:29;97843.03;;;8.51;59.39
9899;BME280;4988;49.238;6.698;2023-03-14T13:13:03;97864.41;;;8.48;60.03
9899;BME280;4988;49.238;6.698;2023-03-14T13:15:40;97858.69;;;8.40;60.13
9899;BME280;4988;49.238;6.698;2023-03-14T13:18:12;97866.13;;;8.49;61.59
9899;BME280;4988;49.238;6.698;2023-03-14T13:20:45;97857.91;;;8.54;60.40
9899;BME280;4988;49.238;6.698;2023-03-14T13:23:22;97863.66;;;8.77;61.25
9899;BME280;4988;49.238;6.698;2023-03-14T13:25:47;97862.00;;;9.05;61.87
9899;BME280;4988;49.238;6.698;2023-03-14T13:28:14;97876.81;;;9.23;61.89
9899;BME280;4988;49.238;6.698;2023-03-14T13:30:41;97851.84;;;9.11;59.63
9899;BME280;4988;49.238;6.698;2023-03-14T13:33:12;97873.59;;;9.32;61.68
9899;BME280;4988;49.238;6.698;2023-03-14T13:35:42;97880.59;;;9.48;62.36
9899;BME280;4988;49.238;6.698;2023-03-14T13:38:35;97875.28;;;9.33;61.08
9899;BME280;4988;49.238;6.698;2023-03-14T13:41:04;97873.28;;;9.08;61.63
9899;BME280;4988;49.238;6.698;2023-03-14T13:43:40;97895.94;;;8.99;62.41
9899;BME280;4988;49.238;6.698;2023-03-14T13:46:12;97895.00;;;9.00;62.38
9899;BME280;4988;49.238;6.698;2023-03-14T13:48:44;97896.56;;;8.89;62.30
9899;BME280;4988;49.238;6.698;2023-03-14T13:53:59;97901.34;;;9.12;62.09
9899;BME280;4988;49.238;6.698;2023-03-14T13:56:30;97893.50;;;9.25;61.34
9899;BME280;4988;49.238;6.698;2023-03-14T13:58:56;97904.94;;;9.11;59.39
9899;BME280;4988;49.238;6.698;2023-03-14T14:01:30;97915.56;;;8.97;60.38
9899;BME280;4988;49.238;6.698;2023-03-14T14:03:59;97915.19;;;8.73;58.93
9899;BME280;4988;49.238;6.698;2023-03-14T14:06:39;97920.50;;;8.73;60.71
9899;BME280;4988;49.238;6.698;2023-03-14T14:09:19;97931.16;;;8.87;60.91
9899;BME280;4988;49.238;6.698;2023-03-14T14:14:31;97934.97;;;8.67;60.09
9899;BME280;4988;49.238;6.698;2023-03-14T14:16:58;97949.25;;;8.64;59.57
9899;BME280;4988;49.238;6.698;2023-03-14T14:19:27;97947.38;;;8.66;59.93